Time;durP1;ratioP1;P1;durP2;ratioP2;P2;SDS_P1;SDS_P2;PMS_P1;PMS_P2;Temp;Humidity;BMP_temperature;BMP_pressure;BME280_temperature;BME280_humidity;BME280_pressure;Samples;Min_cycle;Max_cycle;Signal;HPM_P1;HPM_P2
2021/11/12 00:13:38;;;;;;;;;69.75;52.75;;;;;7.23;69.23;102094.41;5080360;28;45282;-77
2021/11/12 00:16:05;;;;;;;;;67.50;51.75;;;;;7.24;69.17;102101.38;5078393;27;45638;-77
2021/11/12 00:18:35;;;;;;;;;68.25;51.75;;;;;7.25;69.12;102097.91;5075975;28;45748;-77
2021/11/12 00:21:02;;;;;;;;;70.75;53.25;;;;;7.23;69.61;102097.03;5079079;27;45439;-78
2021/11/12 00:23:29;;;;;;;;;67.25;51.75;;;;;7.25;69.12;102100.53;5081801;27;45594;-77
2021/11/12 00:25:55;;;;;;;;;72.00;53.75;;;;;7.23;69.09;102098.75;5079562;28;45472;-77
2021/11/12 00:28:24;;;;;;;;;68.50;50.00;;;;;7.24;69.67;102110.94;5078770;27;45450;-77
2021/11/12 00:31:12;;;;;;;;;70.25;52.25;;;;;7.24;69.22;102109.22;5080203;27;45296;-77
2021/11/12 00:38:46;;;;;;;;;66.25;51.25;;;;;7.24;69.40;102098.75;5067109;28;45705;-77
2021/11/12 00:43:57;;;;;;;;;68.00;51.75;;;;;7.25;69.34;102090.06;5078995;28;45346;-77
2021/11/12 00:51:22;;;;;;;;;60.50;49.25;;;;;7.27;69.26;102084.81;5079874;27;45286;-77
2021/11/12 00:53:54;;;;;;;;;59.25;48.75;;;;;7.24;68.73;102076.94;5079876;28;45271;-77
2021/11/12 00:56:24;;;;;;;;;67.00;50.50;;;;;7.24;69.33;102087.41;5079021;27;45278;-78
2021/11/12 00:58:52;;;;;;;;;63.25;49.50;;;;;7.25;69.16;102086.56;5068857;27;45361;-78
2021/11/12 01:01:19;;;;;;;;;62.50;47.00;;;;;7.23;68.51;102085.69;5078988;27;45161;-78
2021/11/12 01:03:45;;;;;;;;;62.25;49.00;;;;;7.24;68.63;102093.53;5078481;27;45605;-76
2021/11/12 01:06:11;;;;;;;;;58.25;48.25;;;;;7.22;68.93;102084.81;5079582;27;45389;-77
2021/11/12 01:08:36;;;;;;;;;56.50;45.75;;;;;7.22;69.06;102076.97;5079716;27;45283;-78
2021/11/12 01:11:03;;;;;;;;;52.25;43.75;;;;;7.22;68.68;102083.94;5112693;27;45399;-77
2021/11/12 01:13:29;;;;;;;;;57.75;46.25;;;;;7.23;68.45;102078.72;5076340;27;45617;-78
2021/11/12 01:15:55;;;;;;;;;59.25;46.75;;;;;7.22;68.48;102076.97;5112063;27;46624;-78
2021/11/12 01:18:21;;;;;;;;;59.00;43.25;;;;;7.20;68.66;102066.50;5079197;28;45444;-76
2021/11/12 01:20:47;;;;;;;;;58.00;45.00;;;;;7.18;68.33;102068.25;5110510;27;45268;-76
2021/11/12 01:23:13;;;;;;;;;57.75;44.00;;;;;7.18;68.65;102073.47;5079290;27;45239;-78
2021/11/12 01:25:39;;;;;;;;;56.75;46.00;;;;;7.17;68.37;102061.25;5079274;27;45335;-78
2021/11/12 01:28:04;;;;;;;;;61.25;48.00;;;;;7.19;69.10;102064.75;5079995;27;45531;-77
2021/11/12 01:30:30;;;;;;;;;60.00;47.00;;;;;7.17;68.80;102053.41;5081023;28;45124;-77
2021/11/12 01:32:55;;;;;;;;;64.75;48.75;;;;;7.18;68.20;102063.03;5082746;28;45200;-77
2021/11/12 01:35:21;;;;;;;;;56.75;46.00;;;;;7.17;69.21;102066.50;5083077;27;45647;-76
2021/11/12 01:37:48;;;;;;;;;59.25;45.00;;;;;7.18;68.69;102057.78;5082658;27;45279;-77
2021/11/12 01:40:21;;;;;;;;;55.75;44.00;;;;;7.18;68.77;102059.53;5082045;27;45484;-77
2021/11/12 01:43:04;;;;;;;;;55.50;42.50;;;;;7.21;68.55;102062.13;5077895;28;45445;-77
2021/11/12 01:45:39;;;;;;;;;54.75;43.50;;;;;7.18;68.64;102052.56;5069510;28;45422;-77
2021/11/12 01:51:03;;;;;;;;;51.50;41.00;;;;;7.20;68.83;102045.59;5082477;28;45267;-77
2021/11/12 01:53:38;;;;;;;;;52.00;40.25;;;;;7.22;68.30;102042.97;5082565;27;45389;-77
2021/11/12 01:59:33;;;;;;;;;56.75;43.75;;;;;7.15;67.96;102046.44;5081432;28;45349;-78
2021/11/12 02:01:55;;;;;;;;;50.75;39.75;;;;;7.12;68.47;102044.69;5074635;27;45219;-77
2021/11/12 02:04:24;;;;;;;;;57.75;44.75;;;;;7.09;68.28;102042.94;5082531;27;45254;-77
2021/11/12 02:06:50;;;;;;;;;53.25;42.75;;;;;7.08;68.34;102040.31;5082170;27;45570;-77
2021/11/12 02:09:20;;;;;;;;;52.50;42.50;;;;;7.07;68.74;102035.94;5081395;27;45285;-78
2021/11/12 02:12:23;;;;;;;;;53.25;41.00;;;;;7.06;68.47;102035.06;5081783;27;45350;-78
2021/11/12 02:14:50;;;;;;;;;54.75;39.50;;;;;7.05;68.15;102037.69;5079500;27;45422;-78
2021/11/12 02:17:21;;;;;;;;;54.75;40.50;;;;;7.05;68.27;102035.06;5081170;28;46170;-78
2021/11/12 02:20:15;;;;;;;;;55.75;40.25;;;;;7.05;68.56;102024.63;5080738;28;46035;-78
2021/11/12 02:22:41;;;;;;;;;45.00;38.50;;;;;7.03;68.64;102026.34;5082407;28;45421;-78
2021/11/12 02:25:19;;;;;;;;;55.25;43.50;;;;;7.05;68.20;102019.38;5080900;27;45428;-79
2021/11/12 02:28:28;;;;;;;;;55.50;43.25;;;;;7.03;68.24;102005.44;5080177;28;45718;-78
2021/11/12 02:30:35;;;;;;;;;55.25;43.00;;;;;7.04;68.08;102007.16;5078463;28;45262;-78
2021/11/12 02:33:00;;;;;;;;;50.25;39.25;;;;;7.03;68.23;102010.69;5093914;27;45343;-80
2021/11/12 02:35:27;;;;;;;;;49.50;39.50;;;;;7.01;68.06;102005.47;5080627;28;45999;-80
2021/11/12 02:37:53;;;;;;;;;53.00;40.75;;;;;7.01;68.55;102013.28;5080879;28;46695;-80
2021/11/12 02:40:18;;;;;;;;;57.75;43.50;;;;;7.02;68.17;102015.03;5081605;28;45891;-79
2021/11/12 02:42:43;;;;;;;;;48.50;40.25;;;;;7.00;68.15;102013.28;5074152;27;45309;-77
2021/11/12 02:45:09;;;;;;;;;53.75;44.00;;;;;6.99;68.64;102004.53;5080811;28;45431;-76
2021/11/12 02:47:34;;;;;;;;;52.25;41.50;;;;;6.98;68.22;102008.94;5080687;28;46415;-76
2021/11/12 02:50:00;;;;;;;;;53.00;39.25;;;;;7.01;68.29;102018.53;5081083;28;45383;-77
2021/11/12 02:52:26;;;;;;;;;51.75;41.00;;;;;7.01;68.21;102012.41;5097518;27;45369;-77
2021/11/12 02:54:52;;;;;;;;;51.75;39.00;;;;;6.98;67.86;102008.06;5081838;27;45524;-77
2021/11/12 02:57:20;;;;;;;;;44.50;37.00;;;;;7.00;67.71;102015.88;5080576;27;45653;-78
2021/11/12 02:59:46;;;;;;;;;48.00;38.50;;;;;6.94;67.67;102015.00;5080031;28;45846;-78
2021/11/12 03:02:12;;;;;;;;;54.25;38.50;;;;;6.93;68.45;102010.66;5081841;27;45437;-78
2021/11/12 03:04:37;;;;;;;;;54.50;42.50;;;;;6.95;68.33;102016.75;5081412;27;45399;-78
2021/11/12 03:07:03;;;;;;;;;53.50;42.25;;;;;6.92;67.52;102010.63;5080411;28;46195;-78
2021/11/12 03:09:31;;;;;;;;;51.00;39.75;;;;;6.91;67.99;102001.94;5081252;27;45283;-78
2021/11/12 03:11:59;;;;;;;;;51.50;41.25;;;;;6.94;67.82;102012.38;5076786;27;45168;-78
2021/11/12 03:14:25;;;;;;;;;44.25;35.75;;;;;6.91;67.79;102007.16;5091506;27;45539;-78
2021/11/12 03:16:51;;;;;;;;;48.50;37.00;;;;;6.91;68.19;102012.41;5079983;28;46674;-77
2021/11/12 03:19:19;;;;;;;;;50.00;39.75;;;;;6.90;67.98;102002.78;5080968;28;45275;-77
2021/11/12 03:21:45;;;;;;;;;44.75;36.75;;;;;6.93;67.95;102008.03;5081574;27;45426;-77
2021/11/12 03:24:25;;;;;;;;;44.75;35.75;;;;;6.90;68.02;102009.75;5081117;27;45239;-76
2021/11/12 04:01:53;;;;;;;;;44.00;35.50;;;;;6.70;67.74;101987.91;5080505;27;46157;-76
2021/11/12 04:07:10;;;;;;;;;45.75;37.25;;;;;6.70;67.75;101981.81;5080345;28;45527;-76
2021/11/12 04:20:24;;;;;;;;;41.50;36.75;;;;;6.67;67.14;101940.88;5081331;27;45424;-77
2021/11/12 05:51:31;;;;;;;;;25.50;23.25;;;;;6.35;67.69;101850.22;5082746;28;45281;-77
2021/11/12 05:56:45;;;;;;;;;25.50;20.25;;;;;6.35;67.66;101856.31;5087240;27;45822;-78
2021/11/12 05:59:12;;;;;;;;;25.75;22.50;;;;;6.36;67.64;101857.19;5115108;27;45333;-77
2021/11/12 06:01:39;;;;;;;;;27.75;22.50;;;;;6.34;67.69;101859.81;5082567;28;45216;-77
2021/11/12 06:04:09;;;;;;;;;20.25;17.75;;;;;6.34;67.36;101852.00;5080816;28;45572;-78
2021/11/12 06:06:34;;;;;;;;;23.25;21.50;;;;;6.37;67.09;101853.75;5081109;28;46649;-77
2021/11/12 06:09:01;;;;;;;;;20.00;18.75;;;;;6.38;67.45;101858.06;5082359;28;45292;-78
2021/11/12 06:11:27;;;;;;;;;21.75;19.25;;;;;6.39;67.54;101852.00;5083091;28;45314;-78
2021/11/12 06:13:58;;;;;;;;;20.25;18.00;;;;;6.38;67.60;101847.63;5079996;28;46260;-78
2021/11/12 06:16:24;;;;;;;;;20.50;17.50;;;;;6.38;67.38;101843.28;5081932;28;45505;-78
2021/11/12 06:18:49;;;;;;;;;23.75;22.00;;;;;6.38;67.35;101855.47;5082063;28;45906;-78
2021/11/12 06:21:15;;;;;;;;;24.75;19.50;;;;;6.37;67.34;101853.75;5082807;28;45460;-78
2021/11/12 06:23:41;;;;;;;;;29.25;23.25;;;;;6.36;67.49;101847.63;5082130;28;45436;-78
2021/11/12 06:26:07;;;;;;;;;24.75;19.50;;;;;6.35;67.17;101850.22;5081944;28;45229;-78
2021/11/12 06:28:32;;;;;;;;;23.50;18.50;;;;;6.32;67.29;101845.00;5081307;28;46025;-78
2021/11/12 06:31:00;;;;;;;;;25.25;23.25;;;;;6.35;67.38;101839.78;5081505;28;45354;-78
2021/11/12 06:33:26;;;;;;;;;22.75;18.50;;;;;6.34;67.02;101832.81;5083149;27;45531;-78
2021/11/12 06:35:52;;;;;;;;;28.00;24.75;;;;;6.33;67.53;101831.06;5080523;28;45483;-78
2021/11/12 06:38:21;;;;;;;;;24.75;19.00;;;;;6.36;67.86;101833.69;5079274;28;45443;-78
2021/11/12 06:40:46;;;;;;;;;29.00;22.75;;;;;6.33;67.50;101837.16;5080766;28;45306;-78
2021/11/12 06:43:24;;;;;;;;;24.25;22.50;;;;;6.35;67.57;101839.78;5081961;28;45309;-78
2021/11/12 06:51:21;;;;;;;;;29.75;19.25;;;;;6.33;67.71;101838.91;5080307;28;45451;-77
2021/11/12 06:53:47;;;;;;;;;24.25;19.75;;;;;6.32;67.36;101843.28;5096312;27;45390;-77
2021/11/12 06:56:12;;;;;;;;;24.00;22.00;;;;;6.36;67.66;101849.38;5081575;28;45411;-77
2021/11/12 06:58:40;;;;;;;;;28.50;20.50;;;;;6.35;67.83;101847.59;5081520;28;45306;-77
2021/11/12 07:01:07;;;;;;;;;21.25;20.25;;;;;6.37;67.67;101853.75;5080471;28;45431;-77
2021/11/12 07:03:33;;;;;;;;;22.50;21.00;;;;;6.36;67.60;101858.09;5081306;28;45349;-77
2021/11/12 07:05:59;;;;;;;;;28.00;20.75;;;;;6.37;68.11;101858.97;5081136;28;46645;-78
2021/11/12 07:08:24;;;;;;;;;24.75;18.50;;;;;6.36;67.70;101850.25;5081477;28;45230;-78
2021/11/12 07:10:52;;;;;;;;;21.50;19.00;;;;;6.38;68.04;101847.63;5085715;27;45213;-77
2021/11/12 07:13:24;;;;;;;;;27.50;19.50;;;;;6.37;67.46;101846.75;5086719;27;47274;-76
2021/11/12 07:15:50;;;;;;;;;28.50;20.75;;;;;6.37;67.50;101848.50;5085099;27;45591;-77
2021/11/12 07:18:20;;;;;;;;;23.75;20.50;;;;;6.36;67.79;101837.19;5087962;27;45368;-78
2021/11/12 07:20:47;;;;;;;;;26.75;19.75;;;;;6.37;67.82;101832.84;5081700;27;45539;-77
2021/11/12 07:23:17;;;;;;;;;27.25;22.00;;;;;6.38;67.55;101829.34;5079498;27;45989;-77
2021/11/12 07:25:43;;;;;;;;;28.75;21.50;;;;;6.39;67.46;101825.88;5092750;27;48167;-77
2021/11/12 07:28:09;;;;;;;;;27.25;24.50;;;;;6.39;67.50;101821.53;5077369;28;45894;-78
2021/11/12 07:30:38;;;;;;;;;28.25;26.00;;;;;6.44;67.82;101836.34;5080390;27;45381;-77
2021/11/12 07:33:04;;;;;;;;;33.25;24.50;;;;;6.43;67.82;101843.28;5078857;27;45223;-77
2021/11/12 07:35:32;;;;;;;;;27.25;23.50;;;;;6.44;67.83;101836.34;5094675;27;47477;-78
2021/11/12 07:38:00;;;;;;;;;29.00;27.25;;;;;6.45;67.93;101838.06;5079492;27;46594;-77
2021/11/12 07:40:36;;;;;;;;;25.50;25.50;;;;;6.49;67.84;101837.22;5086384;27;45448;-77
2021/11/12 07:43:20;;;;;;;;;26.00;23.50;;;;;6.49;68.07;101832.88;5080898;28;45235;-77
2021/11/12 07:45:56;;;;;;;;;33.50;24.00;;;;;6.50;68.14;101818.94;5079211;28;45641;-77
2021/11/12 07:48:23;;;;;;;;;26.25;22.50;;;;;6.50;68.06;101815.44;5080847;27;45564;-77
2021/11/12 07:50:48;;;;;;;;;32.00;25.25;;;;;6.50;67.95;101824.16;5080062;27;45608;-77
2021/11/12 07:53:13;;;;;;;;;24.50;21.00;;;;;6.50;67.62;101816.31;5078170;28;45199;-77
2021/11/12 07:55:39;;;;;;;;;28.00;25.00;;;;;6.52;68.03;101821.53;5079488;27;46221;-77
2021/11/12 07:58:05;;;;;;;;;23.25;22.25;;;;;6.54;68.49;101817.19;5081626;27;45459;-77
2021/11/12 08:00:31;;;;;;;;;28.75;28.00;;;;;6.56;67.92;101801.53;5092328;27;45283;-77
2021/11/12 08:02:57;;;;;;;;;27.50;25.00;;;;;6.60;68.38;101804.13;5073553;28;46758;-77
2021/11/12 08:05:26;;;;;;;;;30.00;26.50;;;;;6.62;68.07;101802.38;5079112;28;48260;-77
2021/11/12 08:07:55;;;;;;;;;27.75;26.00;;;;;6.70;68.37;101809.38;5080298;28;45160;-77
2021/11/12 08:10:23;;;;;;;;;29.25;27.00;;;;;6.69;67.83;101800.66;5093642;27;45159;-77
2021/11/12 08:12:59;;;;;;;;;30.75;24.50;;;;;6.75;68.23;101803.28;5080286;28;45427;-77
2021/11/12 08:18:10;;;;;;;;;29.75;26.00;;;;;6.75;67.97;101829.41;5080303;27;45193;-77
2021/11/12 08:20:42;;;;;;;;;28.00;27.50;;;;;6.79;68.08;101847.72;5086488;27;45372;-77
2021/11/12 08:23:25;;;;;;;;;29.25;28.25;;;;;6.80;67.91;101858.16;5083883;27;45575;-77
2021/11/12 08:26:05;;;;;;;;;33.50;29.75;;;;;6.76;67.44;101856.41;5077734;28;46314;-77
2021/11/12 08:33:54;;;;;;;;;36.50;28.50;;;;;6.83;67.61;101828.53;5059366;27;45432;-77
2021/11/12 08:39:15;;;;;;;;;25.50;24.75;;;;;6.90;68.16;101824.19;5079612;28;45800;-77
2021/11/12 08:42:01;;;;;;;;;37.25;28.50;;;;;6.94;67.92;101831.16;5079497;27;45469;-77
2021/11/12 08:49:34;;;;;;;;;33.50;28.75;;;;;7.05;68.16;101828.53;5078791;28;45767;-76
2021/11/12 08:52:02;;;;;;;;;41.00;33.75;;;;;7.09;67.89;101822.44;5079886;27;45392;-76
2021/11/12 08:54:31;;;;;;;;;35.25;29.25;;;;;7.14;67.90;101831.13;5077846;28;45572;-76
2021/11/12 08:56:57;;;;;;;;;34.50;30.25;;;;;7.16;67.77;101824.16;5077464;27;46313;-76
2021/11/12 08:59:24;;;;;;;;;41.25;30.75;;;;;7.21;67.66;101821.53;5066571;28;46192;-76
2021/11/12 09:01:50;;;;;;;;;41.25;33.00;;;;;7.20;67.84;101820.69;5071999;28;45663;-76
2021/11/12 09:04:15;;;;;;;;;38.75;31.50;;;;;7.26;67.75;101824.19;5077313;28;46581;-76
2021/11/12 09:06:41;;;;;;;;;44.75;33.75;;;;;7.27;68.07;101826.78;5078236;27;46442;-76
2021/11/12 09:09:06;;;;;;;;;42.50;35.50;;;;;7.34;68.05;101831.97;5076762;27;45941;-76
2021/11/12 09:11:32;;;;;;;;;46.25;36.50;;;;;7.34;68.25;101830.25;5075385;27;45592;-76
2021/11/12 09:14:02;;;;;;;;;45.75;38.50;;;;;7.41;68.32;101839.81;5077446;28;45464;-76
2021/11/12 09:16:35;;;;;;;;;47.00;35.50;;;;;7.44;67.94;101844.19;5076176;27;45487;-76
2021/11/12 09:19:03;;;;;;;;;44.75;34.50;;;;;7.47;67.10;101845.91;5076482;27;45562;-76
2021/11/12 09:21:29;;;;;;;;;54.00;40.25;;;;;7.47;67.38;101838.94;5093273;27;45659;-76
2021/11/12 09:23:56;;;;;;;;;47.00;36.00;;;;;7.53;67.15;101840.69;5076011;27;45530;-76
2021/11/12 09:26:22;;;;;;;;;45.50;35.50;;;;;7.55;67.78;101838.94;5075938;28;45350;-76
2021/11/12 09:28:48;;;;;;;;;50.25;39.50;;;;;7.61;67.60;101853.72;5076961;28;45984;-76
2021/11/12 09:31:13;;;;;;;;;49.25;38.75;;;;;7.63;67.41;101854.63;5078636;27;45883;-76
2021/11/12 09:33:39;;;;;;;;;48.50;39.25;;;;;7.65;67.33;101843.25;5076491;27;45594;-76
2021/11/12 09:36:09;;;;;;;;;47.50;37.25;;;;;7.71;67.44;101833.63;5077090;28;45580;-77
2021/11/12 09:38:36;;;;;;;;;48.75;40.00;;;;;7.75;67.57;101823.16;5072000;27;46157;-76
2021/11/12 09:41:03;;;;;;;;;52.25;39.25;;;;;7.77;67.18;101825.78;5078550;28;45822;-76
2021/11/12 09:43:28;;;;;;;;;51.00;39.00;;;;;7.81;67.00;101821.38;5075353;28;45353;-76
2021/11/12 09:45:54;;;;;;;;;44.50;38.25;;;;;7.80;67.39;101809.19;5077341;28;45429;-76
2021/11/12 09:48:21;;;;;;;;;46.75;37.75;;;;;7.82;66.84;101808.31;5074886;27;45799;-76
2021/11/12 09:50:48;;;;;;;;;48.00;39.25;;;;;7.86;67.52;101810.03;5081124;27;45495;-76
2021/11/12 09:53:14;;;;;;;;;49.50;39.50;;;;;7.91;66.87;101822.22;5079838;28;45207;-76
2021/11/12 09:55:40;;;;;;;;;51.50;41.50;;;;;7.91;67.36;101814.38;5080202;27;46120;-76
2021/11/12 09:58:07;;;;;;;;;50.00;41.25;;;;;7.95;67.46;101814.34;5079763;28;45623;-77
2021/11/12 10:00:34;;;;;;;;;46.75;37.50;;;;;7.97;67.05;101801.28;5081866;27;45379;-76
2021/11/12 10:03:02;;;;;;;;;41.75;36.25;;;;;8.01;66.59;101787.28;5078482;28;45323;-76
2021/11/12 10:05:31;;;;;;;;;44.75;37.00;;;;;8.02;66.59;101794.25;5078512;27;47246;-76
2021/11/12 10:07:57;;;;;;;;;50.50;39.00;;;;;8.02;66.63;101773.31;5078138;28;45959;-76
2021/11/12 10:10:24;;;;;;;;;43.00;35.00;;;;;8.04;66.93;101768.94;5087840;27;45451;-76
2021/11/12 10:12:51;;;;;;;;;44.25;36.50;;;;;8.08;66.24;101786.38;5089205;27;46482;-76
2021/11/12 10:15:29;;;;;;;;;44.50;36.00;;;;;8.06;66.45;101764.56;5080000;28;45458;-76
2021/11/12 10:18:06;;;;;;;;;41.00;34.75;;;;;8.08;65.93;101768.03;5081600;28;45976;-76
2021/11/12 10:20:31;;;;;;;;;46.75;37.00;;;;;8.07;66.13;101766.31;5079832;28;45537;-76
2021/11/12 10:22:57;;;;;;;;;41.75;35.25;;;;;8.07;66.69;101750.59;5080987;28;45467;-76
2021/11/12 10:25:22;;;;;;;;;45.00;34.75;;;;;8.13;66.44;101744.44;5081169;27;46315;-76
2021/11/12 10:27:50;;;;;;;;;45.50;34.50;;;;;8.18;66.53;101750.50;5081019;27;45236;-76
2021/11/12 10:30:23;;;;;;;;;44.25;34.75;;;;;8.22;66.85;101759.22;5079390;27;45473;-76
2021/11/12 10:32:49;;;;;;;;;42.25;34.25;;;;;8.29;66.42;101749.59;5081199;28;45331;-76
2021/11/12 10:35:22;;;;;;;;;41.50;35.75;;;;;8.30;66.27;101736.47;5076344;28;46926;-76
2021/11/12 10:37:49;;;;;;;;;45.75;37.00;;;;;8.30;65.89;101733.84;5081169;27;45875;-76
2021/11/12 10:40:32;;;;;;;;;44.75;36.50;;;;;8.34;66.48;101729.47;5080966;28;45472;-76
2021/11/12 10:42:58;;;;;;;;;49.25;38.50;;;;;8.36;66.28;101740.78;5080112;28;45434;-76
2021/11/12 10:45:29;;;;;;;;;41.50;33.75;;;;;8.39;65.86;101732.91;5078552;28;46900;-76
2021/11/12 10:48:01;;;;;;;;;49.75;38.50;;;;;8.40;66.21;101734.63;5077251;28;45431;-76
2021/11/12 10:50:29;;;;;;;;;43.00;36.25;;;;;8.44;66.31;101738.13;5080190;28;45265;-76
2021/11/12 10:53:07;;;;;;;;;50.00;39.75;;;;;8.48;66.08;101744.19;5080009;28;45707;-76
2021/11/12 10:55:34;;;;;;;;;47.00;32.50;;;;;8.50;66.52;101737.19;5078521;28;47443;-76
2021/11/12 10:58:06;;;;;;;;;46.00;36.50;;;;;8.51;66.04;101745.06;5077048;28;45960;-76
2021/11/12 11:00:51;;;;;;;;;47.25;35.00;;;;;8.58;66.30;101743.28;5077277;28;45176;-76
2021/11/12 11:03:20;;;;;;;;;44.00;36.25;;;;;8.60;66.32;101711.81;5079870;27;45506;-76
2021/11/12 11:05:55;;;;;;;;;44.75;37.75;;;;;8.64;66.30;101696.03;5079765;28;45610;-76
2021/11/12 11:08:24;;;;;;;;;47.50;38.50;;;;;8.66;66.26;101690.78;5080744;28;45453;-77
2021/11/12 11:10:53;;;;;;;;;39.75;36.25;;;;;8.64;66.35;101679.47;5079896;28;45308;-76
2021/11/12 11:13:24;;;;;;;;;45.00;38.00;;;;;8.67;66.12;101668.94;5080088;28;45586;-76
2021/11/12 11:16:05;;;;;;;;;49.50;37.00;;;;;8.66;65.92;101656.72;5080268;28;45515;-77
2021/11/12 11:18:42;;;;;;;;;53.25;39.25;;;;;8.65;66.53;101655.84;5078971;27;45363;-77
2021/11/12 11:23:41;;;;;;;;;49.75;38.50;;;;;8.67;66.42;101661.06;5080801;28;45427;-76
2021/11/12 11:26:07;;;;;;;;;49.75;40.50;;;;;8.66;66.96;101646.25;5079790;28;46569;-76
2021/11/12 11:28:35;;;;;;;;;46.50;39.75;;;;;8.66;66.60;101644.50;5079861;28;45244;-77
2021/11/12 11:31:06;;;;;;;;;47.25;38.25;;;;;8.69;66.63;101661.94;5081732;27;45535;-76
2021/11/12 11:33:32;;;;;;;;;49.75;38.50;;;;;8.71;66.80;101668.03;5077721;28;45220;-76
2021/11/12 11:36:00;;;;;;;;;48.00;38.25;;;;;8.74;66.86;101657.50;5082528;27;46320;-76
2021/11/12 11:38:29;;;;;;;;;52.00;41.75;;;;;8.81;66.68;101660.06;5079053;28;45859;-77
2021/11/12 11:40:56;;;;;;;;;48.50;40.75;;;;;8.80;66.29;101655.69;5078156;28;45419;-76
2021/11/12 11:43:24;;;;;;;;;51.00;41.50;;;;;8.81;66.83;101660.06;5080352;27;45491;-76
2021/11/12 11:45:50;;;;;;;;;53.00;42.75;;;;;8.83;66.83;101660.91;5075695;28;47097;-77
2021/11/12 11:48:17;;;;;;;;;54.25;41.50;;;;;8.88;66.66;101654.75;5080097;28;45341;-76
2021/11/12 11:50:57;;;;;;;;;51.75;41.75;;;;;8.91;67.27;101658.22;5081205;28;45586;-76
2021/11/12 11:53:30;;;;;;;;;53.25;42.25;;;;;8.96;66.62;101678.22;5080196;28;45223;-77
2021/11/12 11:56:17;;;;;;;;;52.25;41.50;;;;;9.00;66.78;101673.84;5079374;28;45415;-77
2021/11/12 11:58:45;;;;;;;;;47.25;39.75;;;;;9.05;67.05;101660.66;5080776;28;45866;-77
2021/11/12 12:01:16;;;;;;;;;53.75;42.50;;;;;9.07;66.93;101670.25;5079865;28;45488;-76
2021/11/12 12:03:46;;;;;;;;;51.50;42.00;;;;;9.11;66.52;101676.34;5079705;28;45212;-76
2021/11/12 12:06:19;;;;;;;;;47.75;40.25;;;;;9.16;67.01;101657.94;5080248;28;46125;-76
2021/11/12 12:08:52;;;;;;;;;50.25;38.50;;;;;9.22;66.28;101660.47;5080123;28;45213;-77
2021/11/12 12:11:24;;;;;;;;;52.50;42.50;;;;;9.24;66.62;101656.06;5078960;28;45251;-77
2021/11/12 12:14:19;;;;;;;;;53.00;43.75;;;;;9.33;67.06;101660.34;5078952;28;45325;-76
2021/11/12 12:17:09;;;;;;;;;52.50;42.75;;;;;9.35;67.09;101634.94;5069241;28;46181;-76
2021/11/12 12:19:47;;;;;;;;;48.25;35.75;;;;;9.42;66.97;101641.84;5080302;28;45188;-77
2021/11/12 13:25:47;;;;;;;;;58.25;45.75;;;;;10.61;67.11;101527.84;5080871;28;45913;-76
2021/11/12 13:28:22;;;;;;;;;51.75;42.75;;;;;10.67;67.03;101527.72;5081905;27;45300;-76
2021/11/12 13:30:54;;;;;;;;;53.25;44.50;;;;;10.66;67.13;101518.09;5088320;27;45464;-76
2021/11/12 13:33:29;;;;;;;;;57.25;46.00;;;;;10.73;66.98;101517.09;5084884;27;45830;-76
2021/11/12 13:35:56;;;;;;;;;56.50;43.50;;;;;10.76;67.12;101524.91;5081224;28;45948;-76
2021/11/12 13:38:22;;;;;;;;;59.00;45.00;;;;;10.78;67.17;101512.59;5077735;28;45515;-76
2021/11/12 13:40:48;;;;;;;;;54.25;42.75;;;;;10.81;66.82;101514.28;5083306;27;45353;-76
2021/11/12 13:43:25;;;;;;;;;54.75;45.00;;;;;10.87;66.84;101510.66;5082146;28;45478;-76
2021/11/12 13:45:58;;;;;;;;;54.75;42.75;;;;;10.87;66.93;101506.25;5081338;28;46206;-76
2021/11/12 13:48:24;;;;;;;;;51.00;41.00;;;;;10.88;66.95;101488.72;5082571;28;45290;-76
2021/11/12 13:51:01;;;;;;;;;53.25;42.50;;;;;10.91;66.82;101499.19;5082333;27;45163;-76
2021/11/12 13:53:32;;;;;;;;;51.50;43.00;;;;;10.91;66.88;101492.13;5114544;27;47095;-76
2021/11/12 13:55:59;;;;;;;;;53.00;43.00;;;;;10.94;67.16;101493.00;5082458;28;46678;-76
2021/11/12 13:58:26;;;;;;;;;53.00;44.25;;;;;10.95;67.16;101490.31;5081282;28;45235;-76
2021/11/12 14:00:56;;;;;;;;;51.50;41.00;;;;;10.97;67.27;101491.13;5082539;28;45243;-76
2021/11/12 14:03:36;;;;;;;;;53.00;42.75;;;;;11.01;67.03;101487.53;5081740;27;45360;-76
2021/11/12 14:06:09;;;;;;;;;52.75;42.75;;;;;11.02;67.36;101478.75;5080779;28;47062;-76
2021/11/12 14:08:40;;;;;;;;;51.75;43.50;;;;;11.03;67.44;101483.13;5082492;28;45334;-76
2021/11/12 14:11:27;;;;;;;;;53.00;43.50;;;;;11.08;67.51;101498.81;5082375;27;45440;-76
2021/11/12 14:13:56;;;;;;;;;54.25;42.50;;;;;11.12;67.66;101494.31;5076832;28;45437;-76
2021/11/12 14:16:37;;;;;;;;;54.25;44.25;;;;;11.13;67.18;101480.28;5079580;27;46021;-78
2021/11/12 14:49:19;;;;;;;;;51.00;41.00;;;;;11.29;67.80;101459.72;5080959;27;45478;-76
2021/11/12 14:54:40;;;;;;;;;50.75;39.25;;;;;11.34;67.97;101465.72;5081458;27;45433;-76
2021/11/12 14:57:25;;;;;;;;;52.50;43.25;;;;;11.35;68.05;101454.31;5089496;27;45441;-75
2021/11/12 14:59:54;;;;;;;;;52.00;42.75;;;;;11.36;68.15;101456.03;5082594;27;45378;-75
2021/11/12 15:02:20;;;;;;;;;50.75;41.00;;;;;11.33;68.22;101444.72;5081315;28;45384;-76
2021/11/12 15:04:45;;;;;;;;;54.25;42.00;;;;;11.32;68.06;101443.84;5081639;28;45416;-76
2021/11/12 15:07:13;;;;;;;;;52.00;42.00;;;;;11.32;68.04;101457.00;5081694;27;45507;-76
2021/11/12 15:09:40;;;;;;;;;53.50;41.00;;;;;11.31;67.96;101462.31;5081344;27;46051;-75
2021/11/12 15:12:07;;;;;;;;;49.25;39.75;;;;;11.31;68.18;101457.06;5113406;27;45290;-76
2021/11/12 15:14:36;;;;;;;;;50.00;40.25;;;;;11.29;68.12;101456.19;5080592;27;45530;-75
2021/11/12 15:17:05;;;;;;;;;56.25;44.50;;;;;11.29;68.19;101459.72;5085923;27;45551;-75
2021/11/12 15:19:34;;;;;;;;;52.50;42.75;;;;;11.29;68.07;101466.72;5094655;27;46423;-75
2021/11/12 15:30:09;;;;;;;;;48.00;41.00;;;;;11.20;68.43;101452.91;5081146;27;45677;-75
2021/11/12 15:32:37;;;;;;;;;53.50;42.25;;;;;11.17;68.11;101458.25;5080224;28;45211;-75
2021/11/12 15:35:07;;;;;;;;;54.00;42.00;;;;;11.18;68.21;101457.34;5094610;27;45406;-75
2021/11/12 15:42:46;;;;;;;;;61.50;45.00;;;;;11.11;68.68;101455.78;5081034;27;45965;-76
2021/11/12 15:48:21;;;;;;;;;57.00;46.00;;;;;11.08;68.69;101446.19;5079574;27;45572;-75
2021/11/12 15:55:47;;;;;;;;;54.50;43.25;;;;;11.04;68.96;101449.75;5081023;28;45235;-75
2021/11/12 16:06:14;;;;;;;;;42.75;35.75;;;;;11.03;69.00;101464.72;5080843;28;45377;-76
2021/11/12 16:14:03;;;;;;;;;50.75;41.50;;;;;11.03;68.77;101484.88;5080204;27;45335;-75
2021/11/12 16:26:50;;;;;;;;;54.50;45.00;;;;;10.87;68.78;101489.59;5080001;27;45274;-75
2021/11/12 16:29:29;;;;;;;;;54.75;43.75;;;;;10.82;68.47;101488.84;5080257;28;45290;-75
2021/11/12 16:31:55;;;;;;;;;61.00;48.00;;;;;10.77;68.31;101487.19;5080332;27;45391;-75
2021/11/12 16:34:24;;;;;;;;;70.00;54.25;;;;;10.71;68.40;101484.69;5080065;27;45338;-75
2021/11/12 16:36:57;;;;;;;;;78.00;65.50;;;;;10.67;68.67;101488.28;5080214;28;45402;-75
2021/11/12 16:39:28;;;;;;;;;88.25;78.50;;;;;10.63;68.55;101492.75;5080175;28;45248;-75
2021/11/12 16:47:33;;;;;;;;;88.00;77.25;;;;;10.46;68.57;101485.19;5083287;27;45564;-75
2021/11/12 17:02:57;;;;;;;;;56.25;45.75;;;;;10.26;69.05;101473.31;5079723;27;46210;-75
2021/11/12 17:05:35;;;;;;;;;60.00;46.25;;;;;10.26;69.59;101472.44;5079860;27;45167;-75
2021/11/12 17:10:49;;;;;;;;;57.75;44.75;;;;;10.29;69.48;101475.88;5079699;27;45741;-76
2021/11/12 17:48:18;;;;;;;;;49.25;39.25;;;;;10.74;69.03;101421.50;5056543;28;45414;-75
2021/11/12 18:02:11;;;;;;;;;46.50;38.50;;;;;10.85;69.06;101407.25;5079155;27;45461;-75
2021/11/12 18:04:53;;;;;;;;;47.75;37.50;;;;;10.90;68.96;101421.16;5078839;27;45210;-75
2021/11/12 21:47:05;;;;;;;;;44.25;35.00;;;;;12.11;72.29;101413.69;5081632;27;45204;-77
2021/11/12 21:49:31;;;;;;;;;41.00;33.25;;;;;12.14;71.81;101404.88;5082131;27;45234;-77